Lakeland, Minnesota
Current Conditions -  °F | °C
As of 5:51 PM on Wednesday 22 Oct 2014 (Local Time) from K21D Reporting Station
Clear Clear  
Wind Chill: 55°   Ceiling: Unl
Heat Index: 55°   Visibility: 10mi
Dew Point: 41°   Wind: 12mph
Humidity: 58%   Direction: 150°SSE
Pressure: 30.07"   Gusts: 21mph
Location:  44.96°N, 92.77°W
Report Text: K21D 222251Z AUTO 15010G18KT 10SM CLR 13/05 A3007 RMK AO2
Loading
Personal Weather Stations






























Interactive Weather Map
Tropical Storm Tracking
New forecast layout! Learn more

10-Day Weather Forecast

Advertisements
Track Severe Weather on mobile